createdAt,value
2023-03-29T00:09:45.265Z,101224.73
2023-03-29T00:25:03.480Z,101219.85
2023-03-29T00:40:10.145Z,101213.23
2023-03-29T00:55:35.831Z,101211.20
2023-03-29T01:10:43.091Z,101198.76
2023-03-29T01:26:04.467Z,101176.27
2023-03-29T01:41:07.316Z,101169.54
2023-03-29T01:56:22.432Z,101160.85
2023-03-29T02:11:28.766Z,101149.63
2023-03-29T02:26:31.913Z,101147.35
2023-03-29T02:41:37.533Z,101140.88
2023-03-29T02:56:57.622Z,101129.93
2023-03-29T03:12:00.527Z,101114.02
2023-03-29T03:27:03.169Z,101105.68
2023-03-29T03:42:08.412Z,101098.50
2023-03-29T03:57:25.980Z,101092.27
2023-03-29T04:12:28.926Z,101093.99
2023-03-29T04:27:32.195Z,101091.56
2023-03-29T04:42:51.071Z,101080.11
2023-03-29T04:57:54.934Z,101072.46
2023-03-29T05:13:12.317Z,101052.21
2023-03-29T05:28:16.160Z,101039.05
2023-03-29T05:43:19.174Z,101029.36
2023-03-29T05:58:22.634Z,101031.80
2023-03-29T06:13:26.824Z,101038.53
2023-03-29T06:28:30.265Z,101033.11
2023-03-29T06:43:34.127Z,101035.51
2023-03-29T06:58:51.356Z,101024.67
2023-03-29T07:13:55.173Z,101022.95
2023-03-29T07:28:58.424Z,101025.71
2023-03-29T07:44:08.509Z,101029.40
2023-03-29T07:59:11.359Z,101011.65
2023-03-29T08:14:28.387Z,101008.61
2023-03-29T08:29:31.235Z,101003.55
2023-03-29T08:44:49.858Z,100986.63
2023-03-29T09:00:17.393Z,100980.33
2023-03-29T09:15:54.132Z,100967.45
2023-03-29T09:31:20.953Z,100955.25
2023-03-29T09:46:38.274Z,100939.73
2023-03-29T10:02:11.464Z,100918.23
2023-03-29T10:17:28.762Z,100906.20
2023-03-29T10:32:35.753Z,100888.90
2023-03-29T10:47:44.166Z,100866.33
2023-03-29T11:02:58.601Z,100848.08
2023-03-29T11:18:19.235Z,100828.98
2023-03-29T11:34:13.863Z,100811.50
2023-03-29T11:49:36.536Z,100800.91
2023-03-29T12:04:51.414Z,100776.55
2023-03-29T12:20:31.030Z,100748.61
2023-03-29T12:35:58.560Z,100732.91
2023-03-29T12:51:12.497Z,100715.61
2023-03-29T13:06:46.082Z,100693.14
2023-03-29T13:22:30.652Z,100688.21
2023-03-29T13:37:46.758Z,100661.53
2023-03-29T13:53:10.877Z,100650.02
2023-03-29T14:08:26.548Z,100639.19
2023-03-29T14:23:33.338Z,100628.39
2023-03-29T14:38:37.503Z,100612.95
2023-03-29T14:53:42.690Z,100591.82
2023-03-29T15:09:01.456Z,100573.71
2023-03-29T15:24:33.321Z,100552.36
2023-03-29T15:39:43.891Z,100536.05
2023-03-29T15:54:46.805Z,100530.56
2023-03-29T16:09:50.415Z,100531.23
2023-03-29T16:24:53.273Z,100531.35
2023-03-29T16:39:56.649Z,100529.79
2023-03-29T16:54:59.725Z,100542.73
2023-03-29T17:10:05.414Z,100528.86
2023-03-29T17:25:09.357Z,100525.68
2023-03-29T17:40:26.861Z,100524.39
2023-03-29T17:55:29.804Z,100526.37
2023-03-29T18:10:32.924Z,100528.69
2023-03-29T18:25:35.623Z,100529.45
2023-03-29T18:40:38.754Z,100530.09
2023-03-29T18:55:42.839Z,100521.63
2023-03-29T19:10:45.906Z,100518.52
2023-03-29T19:25:57.815Z,100517.68
2023-03-29T19:41:15.524Z,100511.16
2023-03-29T19:56:18.179Z,100500.11
2023-03-29T20:11:23.297Z,100501.73
2023-03-29T20:26:27.457Z,100504.08
2023-03-29T20:41:31.232Z,100493.78
2023-03-29T20:56:39.472Z,100479.35
2023-03-29T21:11:43.098Z,100476.26
2023-03-29T21:26:45.946Z,100462.77
2023-03-29T21:41:48.508Z,100439.64
2023-03-29T21:56:51.171Z,100437.41
2023-03-29T22:11:53.750Z,100427.88
2023-03-29T22:26:56.192Z,100411.73
2023-03-29T22:41:58.818Z,100399.74
2023-03-29T22:57:01.428Z,100396.36
2023-03-29T23:12:04.228Z,100387.65
2023-03-29T23:27:07.175Z,100374.73
2023-03-29T23:42:10.260Z,100367.79
2023-03-29T23:57:13.175Z,100363.05
